sensor_id;sensor_type;location;lat;lon;timestamp;P1;durP1;ratioP1;P2;durP2;ratioP2
23838;SDS011;12100;44.384;20.272;2022-12-07T00:01:34;7.22;;;4.65;;
23838;SDS011;12100;44.384;20.272;2022-12-07T00:04:03;4.72;;;3.92;;
23838;SDS011;12100;44.384;20.272;2022-12-07T00:06:43;6.10;;;4.47;;
23838;SDS011;12100;44.384;20.272;2022-12-07T00:09:11;5.80;;;4.30;;
23838;SDS011;12100;44.384;20.272;2022-12-07T00:11:39;5.28;;;3.90;;
23838;SDS011;12100;44.384;20.272;2022-12-07T00:14:06;5.22;;;3.72;;
23838;SDS011;12100;44.384;20.272;2022-12-07T00:16:34;6.22;;;3.95;;
23838;SDS011;12100;44.384;20.272;2022-12-07T00:19:02;6.00;;;3.63;;
23838;SDS011;12100;44.384;20.272;2022-12-07T00:21:29;4.15;;;3.40;;
23838;SDS011;12100;44.384;20.272;2022-12-07T00:23:57;4.93;;;4.13;;
23838;SDS011;12100;44.384;20.272;2022-12-07T00:26:24;7.28;;;4.00;;
23838;SDS011;12100;44.384;20.272;2022-12-07T00:28:56;9.50;;;6.72;;
23838;SDS011;12100;44.384;20.272;2022-12-07T00:31:26;7.63;;;4.25;;
23838;SDS011;12100;44.384;20.272;2022-12-07T00:33:53;11.32;;;8.15;;
23838;SDS011;12100;44.384;20.272;2022-12-07T00:36:20;19.05;;;12.18;;
23838;SDS011;12100;44.384;20.272;2022-12-07T00:38:47;12.63;;;7.70;;
23838;SDS011;12100;44.384;20.272;2022-12-07T00:41:14;7.00;;;4.95;;
23838;SDS011;12100;44.384;20.272;2022-12-07T00:43:44;6.10;;;3.45;;
23838;SDS011;12100;44.384;20.272;2022-12-07T00:46:11;5.25;;;3.40;;
23838;SDS011;12100;44.384;20.272;2022-12-07T00:48:38;10.15;;;6.80;;
23838;SDS011;12100;44.384;20.272;2022-12-07T00:51:05;14.63;;;9.75;;
23838;SDS011;12100;44.384;20.272;2022-12-07T00:53:33;10.40;;;6.60;;
23838;SDS011;12100;44.384;20.272;2022-12-07T00:56:06;5.35;;;3.90;;
23838;SDS011;12100;44.384;20.272;2022-12-07T00:58:33;5.70;;;4.30;;
23838;SDS011;12100;44.384;20.272;2022-12-07T01:01:03;12.68;;;9.10;;
23838;SDS011;12100;44.384;20.272;2022-12-07T01:03:30;12.48;;;9.23;;
23838;SDS011;12100;44.384;20.272;2022-12-07T01:05:56;6.28;;;4.78;;
23838;SDS011;12100;44.384;20.272;2022-12-07T01:08:23;10.98;;;7.18;;
23838;SDS011;12100;44.384;20.272;2022-12-07T01:10:57;9.48;;;6.68;;
23838;SDS011;12100;44.384;20.272;2022-12-07T01:13:31;7.50;;;5.20;;
23838;SDS011;12100;44.384;20.272;2022-12-07T01:15:58;6.70;;;3.97;;
23838;SDS011;12100;44.384;20.272;2022-12-07T01:18:28;7.35;;;4.28;;
23838;SDS011;12100;44.384;20.272;2022-12-07T01:20:59;6.22;;;3.88;;
23838;SDS011;12100;44.384;20.272;2022-12-07T01:23:36;5.03;;;3.63;;
23838;SDS011;12100;44.384;20.272;2022-12-07T01:26:03;4.75;;;3.35;;
23838;SDS011;12100;44.384;20.272;2022-12-07T01:28:31;5.60;;;3.75;;
23838;SDS011;12100;44.384;20.272;2022-12-07T01:31:07;6.45;;;4.78;;
23838;SDS011;12100;44.384;20.272;2022-12-07T01:33:40;10.50;;;7.23;;
23838;SDS011;12100;44.384;20.272;2022-12-07T01:36:08;12.43;;;8.40;;
23838;SDS011;12100;44.384;20.272;2022-12-07T01:38:42;7.70;;;6.03;;
23838;SDS011;12100;44.384;20.272;2022-12-07T01:41:09;6.50;;;4.38;;
23838;SDS011;12100;44.384;20.272;2022-12-07T01:43:35;6.18;;;4.40;;
23838;SDS011;12100;44.384;20.272;2022-12-07T01:46:02;5.55;;;4.03;;
23838;SDS011;12100;44.384;20.272;2022-12-07T01:48:31;7.35;;;4.32;;
23838;SDS011;12100;44.384;20.272;2022-12-07T01:51:08;13.20;;;8.38;;
23838;SDS011;12100;44.384;20.272;2022-12-07T01:53:38;11.35;;;8.20;;
23838;SDS011;12100;44.384;20.272;2022-12-07T01:56:08;19.95;;;13.05;;
23838;SDS011;12100;44.384;20.272;2022-12-07T01:58:38;15.38;;;10.93;;
23838;SDS011;12100;44.384;20.272;2022-12-07T02:01:04;17.02;;;10.68;;
23838;SDS011;12100;44.384;20.272;2022-12-07T02:03:32;11.85;;;6.82;;
23838;SDS011;12100;44.384;20.272;2022-12-07T02:06:04;6.80;;;4.40;;
23838;SDS011;12100;44.384;20.272;2022-12-07T02:08:32;5.60;;;4.28;;
23838;SDS011;12100;44.384;20.272;2022-12-07T02:10:59;6.10;;;4.50;;
23838;SDS011;12100;44.384;20.272;2022-12-07T02:13:27;5.30;;;4.10;;
23838;SDS011;12100;44.384;20.272;2022-12-07T02:29:40;7.72;;;4.85;;
23838;SDS011;12100;44.384;20.272;2022-12-07T02:35:19;4.75;;;3.80;;
23838;SDS011;12100;44.384;20.272;2022-12-07T02:40:53;7.57;;;5.10;;
23838;SDS011;12100;44.384;20.272;2022-12-07T02:43:31;7.70;;;5.18;;
23838;SDS011;12100;44.384;20.272;2022-12-07T02:46:05;8.80;;;5.28;;
23838;SDS011;12100;44.384;20.272;2022-12-07T02:48:34;8.88;;;5.13;;
23838;SDS011;12100;44.384;20.272;2022-12-07T02:51:03;10.15;;;5.53;;
23838;SDS011;12100;44.384;20.272;2022-12-07T02:58:45;12.75;;;8.30;;
23838;SDS011;12100;44.384;20.272;2022-12-07T03:18:15;20.17;;;14.95;;
23838;SDS011;12100;44.384;20.272;2022-12-07T03:20:45;24.35;;;16.45;;
23838;SDS011;12100;44.384;20.272;2022-12-07T03:23:13;26.55;;;16.92;;
23838;SDS011;12100;44.384;20.272;2022-12-07T03:25:42;23.05;;;16.77;;
23838;SDS011;12100;44.384;20.272;2022-12-07T03:28:16;21.02;;;15.77;;
23838;SDS011;12100;44.384;20.272;2022-12-07T03:30:47;47.22;;;28.52;;
23838;SDS011;12100;44.384;20.272;2022-12-07T03:35:49;29.67;;;18.08;;
23838;SDS011;12100;44.384;20.272;2022-12-07T03:39:07;25.20;;;15.15;;
23838;SDS011;12100;44.384;20.272;2022-12-07T03:41:26;23.33;;;15.50;;
23838;SDS011;12100;44.384;20.272;2022-12-07T03:43:54;19.58;;;13.63;;
23838;SDS011;12100;44.384;20.272;2022-12-07T03:51:41;9.80;;;6.63;;
23838;SDS011;12100;44.384;20.272;2022-12-07T03:55:10;8.75;;;5.15;;
23838;SDS011;12100;44.384;20.272;2022-12-07T03:57:19;6.88;;;3.90;;
23838;SDS011;12100;44.384;20.272;2022-12-07T03:59:46;8.25;;;4.10;;
23838;SDS011;12100;44.384;20.272;2022-12-07T04:02:13;23.83;;;15.50;;
23838;SDS011;12100;44.384;20.272;2022-12-07T04:04:40;22.30;;;15.95;;
23838;SDS011;12100;44.384;20.272;2022-12-07T04:07:07;14.07;;;10.23;;
23838;SDS011;12100;44.384;20.272;2022-12-07T04:09:33;12.38;;;8.02;;
23838;SDS011;12100;44.384;20.272;2022-12-07T04:11:59;11.48;;;6.47;;
23838;SDS011;12100;44.384;20.272;2022-12-07T04:14:25;11.52;;;7.60;;
23838;SDS011;12100;44.384;20.272;2022-12-07T04:16:52;9.55;;;7.13;;
23838;SDS011;12100;44.384;20.272;2022-12-07T04:19:22;10.73;;;8.80;;
23838;SDS011;12100;44.384;20.272;2022-12-07T04:21:53;13.20;;;9.18;;
23838;SDS011;12100;44.384;20.272;2022-12-07T04:24:19;15.05;;;10.05;;
23838;SDS011;12100;44.384;20.272;2022-12-07T04:26:45;56.20;;;29.50;;
23838;SDS011;12100;44.384;20.272;2022-12-07T04:29:12;23.30;;;14.27;;
23838;SDS011;12100;44.384;20.272;2022-12-07T04:31:38;27.25;;;17.55;;
23838;SDS011;12100;44.384;20.272;2022-12-07T04:34:04;15.88;;;9.98;;
23838;SDS011;12100;44.384;20.272;2022-12-07T04:36:31;25.33;;;15.35;;
23838;SDS011;12100;44.384;20.272;2022-12-07T04:38:57;39.05;;;20.80;;
23838;SDS011;12100;44.384;20.272;2022-12-07T04:41:23;26.63;;;15.98;;
23838;SDS011;12100;44.384;20.272;2022-12-07T04:43:53;17.90;;;11.02;;
23838;SDS011;12100;44.384;20.272;2022-12-07T04:46:26;37.83;;;23.80;;
23838;SDS011;12100;44.384;20.272;2022-12-07T04:48:53;37.30;;;23.45;;
23838;SDS011;12100;44.384;20.272;2022-12-07T04:51:21;27.13;;;17.63;;
23838;SDS011;12100;44.384;20.272;2022-12-07T04:53:48;22.75;;;12.27;;
23838;SDS011;12100;44.384;20.272;2022-12-07T04:56:15;14.35;;;10.07;;
23838;SDS011;12100;44.384;20.272;2022-12-07T04:58:42;20.88;;;13.18;;
23838;SDS011;12100;44.384;20.272;2022-12-07T05:01:08;17.27;;;10.15;;
23838;SDS011;12100;44.384;20.272;2022-12-07T05:03:35;14.98;;;10.80;;
23838;SDS011;12100;44.384;20.272;2022-12-07T05:06:02;22.88;;;11.93;;
23838;SDS011;12100;44.384;20.272;2022-12-07T05:08:29;88.50;;;34.75;;
23838;SDS011;12100;44.384;20.272;2022-12-07T05:10:55;30.45;;;19.70;;
23838;SDS011;12100;44.384;20.272;2022-12-07T05:13:20;20.67;;;14.73;;
23838;SDS011;12100;44.384;20.272;2022-12-07T05:15:47;18.08;;;10.80;;
23838;SDS011;12100;44.384;20.272;2022-12-07T05:18:13;21.40;;;10.95;;
23838;SDS011;12100;44.384;20.272;2022-12-07T05:20:39;40.42;;;24.83;;
23838;SDS011;12100;44.384;20.272;2022-12-07T05:23:05;15.77;;;10.95;;
23838;SDS011;12100;44.384;20.272;2022-12-07T05:25:31;11.13;;;7.50;;
23838;SDS011;12100;44.384;20.272;2022-12-07T05:27:57;7.50;;;5.85;;
23838;SDS011;12100;44.384;20.272;2022-12-07T05:30:23;9.75;;;6.80;;
23838;SDS011;12100;44.384;20.272;2022-12-07T05:32:50;44.35;;;17.10;;
23838;SDS011;12100;44.384;20.272;2022-12-07T05:35:16;52.05;;;21.67;;
23838;SDS011;12100;44.384;20.272;2022-12-07T05:37:43;32.15;;;15.43;;
23838;SDS011;12100;44.384;20.272;2022-12-07T05:40:10;59.33;;;32.00;;
23838;SDS011;12100;44.384;20.272;2022-12-07T05:42:36;48.65;;;28.27;;
23838;SDS011;12100;44.384;20.272;2022-12-07T05:45:02;17.30;;;11.88;;
23838;SDS011;12100;44.384;20.272;2022-12-07T05:47:29;8.90;;;5.70;;
23838;SDS011;12100;44.384;20.272;2022-12-07T05:49:55;8.18;;;5.70;;
23838;SDS011;12100;44.384;20.272;2022-12-07T05:52:21;7.70;;;5.32;;
23838;SDS011;12100;44.384;20.272;2022-12-07T05:54:47;9.68;;;7.03;;
23838;SDS011;12100;44.384;20.272;2022-12-07T05:57:13;20.08;;;13.73;;
23838;SDS011;12100;44.384;20.272;2022-12-07T05:59:39;18.27;;;13.10;;
23838;SDS011;12100;44.384;20.272;2022-12-07T06:02:12;53.00;;;37.38;;
23838;SDS011;12100;44.384;20.272;2022-12-07T06:04:41;37.63;;;24.63;;
23838;SDS011;12100;44.384;20.272;2022-12-07T06:07:08;27.50;;;18.02;;
23838;SDS011;12100;44.384;20.272;2022-12-07T06:09:35;14.88;;;8.88;;
23838;SDS011;12100;44.384;20.272;2022-12-07T06:12:01;12.13;;;9.05;;
23838;SDS011;12100;44.384;20.272;2022-12-07T06:14:46;43.97;;;27.52;;
23838;SDS011;12100;44.384;20.272;2022-12-07T06:17:13;50.72;;;30.60;;
23838;SDS011;12100;44.384;20.272;2022-12-07T06:19:39;39.17;;;26.02;;
23838;SDS011;12100;44.384;20.272;2022-12-07T06:22:05;38.85;;;23.08;;
23838;SDS011;12100;44.384;20.272;2022-12-07T06:24:32;31.52;;;19.90;;
23838;SDS011;12100;44.384;20.272;2022-12-07T06:26:59;18.45;;;13.30;;
23838;SDS011;12100;44.384;20.272;2022-12-07T06:29:25;16.52;;;11.43;;
23838;SDS011;12100;44.384;20.272;2022-12-07T06:31:51;11.82;;;9.43;;
23838;SDS011;12100;44.384;20.272;2022-12-07T06:34:18;10.60;;;7.97;;
23838;SDS011;12100;44.384;20.272;2022-12-07T06:36:45;11.73;;;6.72;;
23838;SDS011;12100;44.384;20.272;2022-12-07T06:39:16;7.18;;;5.00;;
23838;SDS011;12100;44.384;20.272;2022-12-07T06:41:45;11.80;;;8.75;;
23838;SDS011;12100;44.384;20.272;2022-12-07T06:44:12;11.90;;;7.30;;
23838;SDS011;12100;44.384;20.272;2022-12-07T06:46:38;10.90;;;6.55;;
23838;SDS011;12100;44.384;20.272;2022-12-07T06:49:04;15.50;;;7.80;;
23838;SDS011;12100;44.384;20.272;2022-12-07T06:51:31;10.48;;;6.88;;
23838;SDS011;12100;44.384;20.272;2022-12-07T06:53:57;15.43;;;11.88;;
23838;SDS011;12100;44.384;20.272;2022-12-07T06:56:23;9.85;;;7.65;;
23838;SDS011;12100;44.384;20.272;2022-12-07T06:58:49;13.35;;;7.95;;
23838;SDS011;12100;44.384;20.272;2022-12-07T07:01:16;9.10;;;6.55;;
23838;SDS011;12100;44.384;20.272;2022-12-07T07:03:43;13.07;;;8.90;;
23838;SDS011;12100;44.384;20.272;2022-12-07T07:06:10;11.52;;;6.32;;
23838;SDS011;12100;44.384;20.272;2022-12-07T07:08:36;10.07;;;4.57;;
23838;SDS011;12100;44.384;20.272;2022-12-07T07:11:03;4.60;;;3.83;;
23838;SDS011;12100;44.384;20.272;2022-12-07T07:13:29;5.63;;;4.32;;
23838;SDS011;12100;44.384;20.272;2022-12-07T07:15:55;83.88;;;48.05;;
23838;SDS011;12100;44.384;20.272;2022-12-07T07:18:21;70.82;;;42.83;;
23838;SDS011;12100;44.384;20.272;2022-12-07T07:20:47;96.70;;;54.05;;
23838;SDS011;12100;44.384;20.272;2022-12-07T07:23:13;109.72;;;59.83;;
23838;SDS011;12100;44.384;20.272;2022-12-07T07:25:39;89.03;;;50.75;;
23838;SDS011;12100;44.384;20.272;2022-12-07T07:28:05;101.03;;;56.00;;
23838;SDS011;12100;44.384;20.272;2022-12-07T07:30:31;90.15;;;49.92;;
23838;SDS011;12100;44.384;20.272;2022-12-07T07:32:57;16.85;;;10.18;;
23838;SDS011;12100;44.384;20.272;2022-12-07T07:35:27;14.57;;;7.43;;
23838;SDS011;12100;44.384;20.272;2022-12-07T07:37:54;185.43;;;76.30;;
23838;SDS011;12100;44.384;20.272;2022-12-07T07:40:20;124.88;;;52.05;;
23838;SDS011;12100;44.384;20.272;2022-12-07T07:42:47;40.90;;;21.25;;
23838;SDS011;12100;44.384;20.272;2022-12-07T07:45:13;25.05;;;15.48;;
23838;SDS011;12100;44.384;20.272;2022-12-07T07:47:39;29.77;;;18.27;;
23838;SDS011;12100;44.384;20.272;2022-12-07T07:50:05;16.42;;;11.57;;
23838;SDS011;12100;44.384;20.272;2022-12-07T07:52:31;14.98;;;10.25;;
23838;SDS011;12100;44.384;20.272;2022-12-07T07:54:57;20.58;;;13.15;;
23838;SDS011;12100;44.384;20.272;2022-12-07T07:57:23;32.97;;;19.35;;
23838;SDS011;12100;44.384;20.272;2022-12-07T07:59:49;31.05;;;17.85;;
23838;SDS011;12100;44.384;20.272;2022-12-07T08:02:16;27.60;;;15.48;;
23838;SDS011;12100;44.384;20.272;2022-12-07T08:04:44;28.10;;;15.57;;
23838;SDS011;12100;44.384;20.272;2022-12-07T08:07:10;46.42;;;27.10;;
23838;SDS011;12100;44.384;20.272;2022-12-07T08:09:37;66.35;;;35.75;;
23838;SDS011;12100;44.384;20.272;2022-12-07T08:12:03;153.73;;;76.53;;
23838;SDS011;12100;44.384;20.272;2022-12-07T08:14:32;96.43;;;49.65;;
23838;SDS011;12100;44.384;20.272;2022-12-07T08:16:58;64.82;;;35.05;;
23838;SDS011;12100;44.384;20.272;2022-12-07T08:19:25;43.17;;;24.33;;
23838;SDS011;12100;44.384;20.272;2022-12-07T08:21:51;32.00;;;19.35;;
23838;SDS011;12100;44.384;20.272;2022-12-07T08:24:17;18.50;;;12.02;;
23838;SDS011;12100;44.384;20.272;2022-12-07T08:26:43;69.00;;;35.40;;
23838;SDS011;12100;44.384;20.272;2022-12-07T08:29:09;159.07;;;72.53;;
23838;SDS011;12100;44.384;20.272;2022-12-07T08:31:35;41.83;;;21.55;;
23838;SDS011;12100;44.384;20.272;2022-12-07T08:34:00;118.03;;;48.88;;
23838;SDS011;12100;44.384;20.272;2022-12-07T08:36:26;93.88;;;42.90;;
23838;SDS011;12100;44.384;20.272;2022-12-07T08:38:52;32.45;;;17.42;;
23838;SDS011;12100;44.384;20.272;2022-12-07T08:41:18;37.45;;;22.23;;
23838;SDS011;12100;44.384;20.272;2022-12-07T08:43:44;91.93;;;46.40;;
23838;SDS011;12100;44.384;20.272;2022-12-07T08:48:46;71.93;;;34.38;;
23838;SDS011;12100;44.384;20.272;2022-12-07T08:53:42;82.35;;;44.75;;
23838;SDS011;12100;44.384;20.272;2022-12-07T08:56:09;57.15;;;34.95;;
23838;SDS011;12100;44.384;20.272;2022-12-07T08:58:36;38.03;;;27.50;;
23838;SDS011;12100;44.384;20.272;2022-12-07T09:01:03;18.45;;;13.68;;
23838;SDS011;12100;44.384;20.272;2022-12-07T09:03:29;19.42;;;15.52;;
23838;SDS011;12100;44.384;20.272;2022-12-07T09:05:55;41.50;;;35.65;;
23838;SDS011;12100;44.384;20.272;2022-12-07T09:08:22;11.93;;;9.77;;
23838;SDS011;12100;44.384;20.272;2022-12-07T09:10:55;10.77;;;8.13;;
23838;SDS011;12100;44.384;20.272;2022-12-07T09:13:21;16.38;;;11.35;;
23838;SDS011;12100;44.384;20.272;2022-12-07T09:15:47;28.55;;;25.42;;
23838;SDS011;12100;44.384;20.272;2022-12-07T09:18:13;28.70;;;24.85;;
23838;SDS011;12100;44.384;20.272;2022-12-07T09:20:39;9.07;;;6.55;;
23838;SDS011;12100;44.384;20.272;2022-12-07T09:23:06;16.17;;;11.63;;
23838;SDS011;12100;44.384;20.272;2022-12-07T09:25:32;17.13;;;11.70;;
23838;SDS011;12100;44.384;20.272;2022-12-07T09:27:58;12.15;;;9.52;;
23838;SDS011;12100;44.384;20.272;2022-12-07T09:30:25;46.95;;;25.10;;
23838;SDS011;12100;44.384;20.272;2022-12-07T09:32:55;22.15;;;12.80;;
23838;SDS011;12100;44.384;20.272;2022-12-07T09:35:22;27.58;;;16.55;;
23838;SDS011;12100;44.384;20.272;2022-12-07T09:37:48;21.08;;;13.10;;
23838;SDS011;12100;44.384;20.272;2022-12-07T09:40:16;6.43;;;5.38;;
23838;SDS011;12100;44.384;20.272;2022-12-07T09:42:45;11.95;;;8.30;;
23838;SDS011;12100;44.384;20.272;2022-12-07T09:45:16;8.30;;;6.47;;
23838;SDS011;12100;44.384;20.272;2022-12-07T09:47:46;14.38;;;9.32;;
23838;SDS011;12100;44.384;20.272;2022-12-07T09:50:23;11.43;;;8.52;;
23838;SDS011;12100;44.384;20.272;2022-12-07T09:52:51;12.70;;;8.15;;
23838;SDS011;12100;44.384;20.272;2022-12-07T09:55:28;27.35;;;14.65;;
23838;SDS011;12100;44.384;20.272;2022-12-07T09:57:55;17.08;;;9.82;;
23838;SDS011;12100;44.384;20.272;2022-12-07T10:00:23;13.82;;;7.70;;
23838;SDS011;12100;44.384;20.272;2022-12-07T10:06:05;15.45;;;9.90;;
23838;SDS011;12100;44.384;20.272;2022-12-07T10:08:14;23.85;;;13.63;;
23838;SDS011;12100;44.384;20.272;2022-12-07T10:10:44;15.93;;;9.40;;
23838;SDS011;12100;44.384;20.272;2022-12-07T10:13:15;7.97;;;5.85;;
23838;SDS011;12100;44.384;20.272;2022-12-07T10:18:18;12.70;;;9.63;;
23838;SDS011;12100;44.384;20.272;2022-12-07T10:20:45;10.13;;;7.32;;
23838;SDS011;12100;44.384;20.272;2022-12-07T10:23:19;10.05;;;7.97;;
23838;SDS011;12100;44.384;20.272;2022-12-07T10:25:44;9.48;;;7.50;;
23838;SDS011;12100;44.384;20.272;2022-12-07T10:28:12;9.48;;;6.75;;
23838;SDS011;12100;44.384;20.272;2022-12-07T10:30:50;12.07;;;7.85;;
23838;SDS011;12100;44.384;20.272;2022-12-07T10:33:37;20.85;;;15.52;;
23838;SDS011;12100;44.384;20.272;2022-12-07T10:36:17;8.90;;;5.35;;
23838;SDS011;12100;44.384;20.272;2022-12-07T10:38:46;10.23;;;7.43;;
23838;SDS011;12100;44.384;20.272;2022-12-07T10:41:14;11.48;;;9.02;;
23838;SDS011;12100;44.384;20.272;2022-12-07T10:43:47;8.07;;;6.45;;
23838;SDS011;12100;44.384;20.272;2022-12-07T10:49:03;10.07;;;8.20;;
23838;SDS011;12100;44.384;20.272;2022-12-07T10:51:46;10.07;;;6.30;;
23838;SDS011;12100;44.384;20.272;2022-12-07T11:11:13;58.85;;;35.42;;
23838;SDS011;12100;44.384;20.272;2022-12-07T11:22:04;19.52;;;12.73;;
23838;SDS011;12100;44.384;20.272;2022-12-07T11:24:40;17.02;;;12.32;;
23838;SDS011;12100;44.384;20.272;2022-12-07T11:30:12;19.70;;;12.65;;
23838;SDS011;12100;44.384;20.272;2022-12-07T11:35:47;13.43;;;9.13;;
23838;SDS011;12100;44.384;20.272;2022-12-07T11:41:14;41.72;;;24.98;;
23838;SDS011;12100;44.384;20.272;2022-12-07T11:46:19;33.35;;;24.90;;
23838;SDS011;12100;44.384;20.272;2022-12-07T11:48:51;43.33;;;29.48;;
23838;SDS011;12100;44.384;20.272;2022-12-07T11:51:23;29.35;;;21.95;;
23838;SDS011;12100;44.384;20.272;2022-12-07T11:54:03;23.67;;;19.52;;
23838;SDS011;12100;44.384;20.272;2022-12-07T11:56:37;24.00;;;19.85;;
23838;SDS011;12100;44.384;20.272;2022-12-07T11:59:13;29.40;;;22.45;;
23838;SDS011;12100;44.384;20.272;2022-12-07T12:04:27;27.00;;;20.77;;
23838;SDS011;12100;44.384;20.272;2022-12-07T12:07:14;25.88;;;19.02;;
23838;SDS011;12100;44.384;20.272;2022-12-07T12:09:59;22.55;;;18.65;;
23838;SDS011;12100;44.384;20.272;2022-12-07T12:13:37;22.55;;;18.58;;
23838;SDS011;12100;44.384;20.272;2022-12-07T12:20:45;24.20;;;20.08;;
23838;SDS011;12100;44.384;20.272;2022-12-07T12:25:46;25.80;;;21.58;;
23838;SDS011;12100;44.384;20.272;2022-12-07T12:32:04;25.63;;;19.65;;
23838;SDS011;12100;44.384;20.272;2022-12-07T12:33:53;23.65;;;18.60;;
23838;SDS011;12100;44.384;20.272;2022-12-07T12:44:18;20.52;;;18.13;;
23838;SDS011;12100;44.384;20.272;2022-12-07T12:46:55;21.98;;;17.75;;
23838;SDS011;12100;44.384;20.272;2022-12-07T12:51:58;21.73;;;17.40;;
23838;SDS011;12100;44.384;20.272;2022-12-07T12:57:34;20.58;;;16.63;;
23838;SDS011;12100;44.384;20.272;2022-12-07T13:02:55;20.92;;;16.45;;
23838;SDS011;12100;44.384;20.272;2022-12-07T13:05:30;22.13;;;17.27;;
23838;SDS011;12100;44.384;20.272;2022-12-07T13:08:00;25.95;;;18.08;;
23838;SDS011;12100;44.384;20.272;2022-12-07T13:10:33;19.00;;;15.93;;
23838;SDS011;12100;44.384;20.272;2022-12-07T13:13:04;22.23;;;17.13;;
23838;SDS011;12100;44.384;20.272;2022-12-07T13:15:37;29.50;;;21.88;;
23838;SDS011;12100;44.384;20.272;2022-12-07T13:20:51;25.42;;;18.98;;
23838;SDS011;12100;44.384;20.272;2022-12-07T13:26:16;27.67;;;22.88;;
23838;SDS011;12100;44.384;20.272;2022-12-07T13:28:51;26.95;;;21.83;;
23838;SDS011;12100;44.384;20.272;2022-12-07T13:31:47;21.95;;;17.23;;
23838;SDS011;12100;44.384;20.272;2022-12-07T13:37:01;23.42;;;17.77;;
23838;SDS011;12100;44.384;20.272;2022-12-07T13:39:54;23.98;;;19.88;;
23838;SDS011;12100;44.384;20.272;2022-12-07T13:42:33;25.25;;;19.35;;
23838;SDS011;12100;44.384;20.272;2022-12-07T13:45:13;22.30;;;17.80;;
23838;SDS011;12100;44.384;20.272;2022-12-07T13:47:56;21.23;;;15.90;;
23838;SDS011;12100;44.384;20.272;2022-12-07T13:50:28;23.08;;;15.30;;
23838;SDS011;12100;44.384;20.272;2022-12-07T13:52:59;21.52;;;16.63;;
23838;SDS011;12100;44.384;20.272;2022-12-07T13:55:26;21.30;;;16.23;;
23838;SDS011;12100;44.384;20.272;2022-12-07T13:57:53;60.08;;;46.42;;
23838;SDS011;12100;44.384;20.272;2022-12-07T14:00:27;28.77;;;21.83;;
23838;SDS011;12100;44.384;20.272;2022-12-07T14:02:55;26.23;;;18.48;;
23838;SDS011;12100;44.384;20.272;2022-12-07T14:05:34;22.05;;;16.48;;
23838;SDS011;12100;44.384;20.272;2022-12-07T14:08:05;34.83;;;25.73;;
23838;SDS011;12100;44.384;20.272;2022-12-07T14:16:04;28.83;;;22.35;;
23838;SDS011;12100;44.384;20.272;2022-12-07T14:18:43;23.05;;;18.95;;
23838;SDS011;12100;44.384;20.272;2022-12-07T14:23:34;30.63;;;24.67;;
23838;SDS011;12100;44.384;20.272;2022-12-07T14:26:10;25.05;;;20.55;;
23838;SDS011;12100;44.384;20.272;2022-12-07T14:28:38;110.78;;;49.28;;
23838;SDS011;12100;44.384;20.272;2022-12-07T14:31:15;84.25;;;52.65;;
23838;SDS011;12100;44.384;20.272;2022-12-07T14:33:43;42.53;;;31.00;;
23838;SDS011;12100;44.384;20.272;2022-12-07T14:36:09;35.70;;;24.17;;
23838;SDS011;12100;44.384;20.272;2022-12-07T14:38:37;26.40;;;23.42;;
23838;SDS011;12100;44.384;20.272;2022-12-07T14:41:06;23.50;;;16.90;;
23838;SDS011;12100;44.384;20.272;2022-12-07T14:43:57;20.65;;;17.42;;
23838;SDS011;12100;44.384;20.272;2022-12-07T14:46:23;27.27;;;18.23;;
23838;SDS011;12100;44.384;20.272;2022-12-07T14:48:49;25.35;;;19.25;;
23838;SDS011;12100;44.384;20.272;2022-12-07T14:51:15;24.30;;;19.48;;
23838;SDS011;12100;44.384;20.272;2022-12-07T14:53:42;31.50;;;24.08;;
23838;SDS011;12100;44.384;20.272;2022-12-07T14:56:11;151.77;;;90.57;;
23838;SDS011;12100;44.384;20.272;2022-12-07T14:58:37;60.72;;;38.10;;
23838;SDS011;12100;44.384;20.272;2022-12-07T15:01:02;51.47;;;38.58;;
23838;SDS011;12100;44.384;20.272;2022-12-07T15:03:28;48.95;;;38.53;;
23838;SDS011;12100;44.384;20.272;2022-12-07T15:05:55;39.95;;;31.13;;
23838;SDS011;12100;44.384;20.272;2022-12-07T15:08:20;30.30;;;24.17;;
23838;SDS011;12100;44.384;20.272;2022-12-07T15:10:46;34.92;;;28.85;;
23838;SDS011;12100;44.384;20.272;2022-12-07T15:13:12;27.08;;;22.90;;
23838;SDS011;12100;44.384;20.272;2022-12-07T15:15:56;27.05;;;22.23;;
23838;SDS011;12100;44.384;20.272;2022-12-07T15:18:22;161.02;;;122.10;;
23838;SDS011;12100;44.384;20.272;2022-12-07T15:20:49;66.90;;;49.63;;
23838;SDS011;12100;44.384;20.272;2022-12-07T15:23:15;131.18;;;93.10;;
23838;SDS011;12100;44.384;20.272;2022-12-07T15:25:41;56.88;;;38.88;;
23838;SDS011;12100;44.384;20.272;2022-12-07T15:28:07;194.98;;;140.32;;
23838;SDS011;12100;44.384;20.272;2022-12-07T15:30:33;153.15;;;112.03;;
23838;SDS011;12100;44.384;20.272;2022-12-07T15:33:01;134.32;;;95.28;;
23838;SDS011;12100;44.384;20.272;2022-12-07T15:35:27;61.15;;;44.63;;
23838;SDS011;12100;44.384;20.272;2022-12-07T15:37:53;117.80;;;98.93;;
23838;SDS011;12100;44.384;20.272;2022-12-07T15:40:18;63.88;;;51.80;;
23838;SDS011;12100;44.384;20.272;2022-12-07T15:42:44;36.72;;;27.70;;
23838;SDS011;12100;44.384;20.272;2022-12-07T15:45:10;52.50;;;44.97;;
23838;SDS011;12100;44.384;20.272;2022-12-07T15:47:42;31.08;;;25.60;;
23838;SDS011;12100;44.384;20.272;2022-12-07T15:50:11;31.52;;;23.70;;
23838;SDS011;12100;44.384;20.272;2022-12-07T15:52:39;43.95;;;27.08;;
23838;SDS011;12100;44.384;20.272;2022-12-07T15:55:06;32.05;;;22.75;;
23838;SDS011;12100;44.384;20.272;2022-12-07T15:57:32;58.95;;;39.28;;
23838;SDS011;12100;44.384;20.272;2022-12-07T16:00:00;51.08;;;33.22;;
23838;SDS011;12100;44.384;20.272;2022-12-07T16:02:26;47.63;;;31.70;;
23838;SDS011;12100;44.384;20.272;2022-12-07T16:04:52;37.97;;;28.85;;
23838;SDS011;12100;44.384;20.272;2022-12-07T16:07:18;54.17;;;38.17;;
23838;SDS011;12100;44.384;20.272;2022-12-07T16:09:45;135.93;;;89.78;;
23838;SDS011;12100;44.384;20.272;2022-12-07T16:12:11;69.93;;;48.88;;
23838;SDS011;12100;44.384;20.272;2022-12-07T16:14:37;90.55;;;56.22;;
23838;SDS011;12100;44.384;20.272;2022-12-07T16:17:04;84.93;;;57.38;;
23838;SDS011;12100;44.384;20.272;2022-12-07T16:19:31;164.82;;;102.82;;
23838;SDS011;12100;44.384;20.272;2022-12-07T16:21:57;99.55;;;63.28;;
23838;SDS011;12100;44.384;20.272;2022-12-07T16:24:24;288.50;;;174.65;;
23838;SDS011;12100;44.384;20.272;2022-12-07T16:26:50;139.88;;;87.93;;
23838;SDS011;12100;44.384;20.272;2022-12-07T16:29:17;201.38;;;121.10;;
23838;SDS011;12100;44.384;20.272;2022-12-07T16:31:45;141.88;;;88.68;;
23838;SDS011;12100;44.384;20.272;2022-12-07T16:34:12;120.82;;;73.82;;
23838;SDS011;12100;44.384;20.272;2022-12-07T16:36:37;253.20;;;144.65;;
23838;SDS011;12100;44.384;20.272;2022-12-07T16:39:04;172.80;;;111.35;;
23838;SDS011;12100;44.384;20.272;2022-12-07T16:41:30;226.93;;;145.95;;
23838;SDS011;12100;44.384;20.272;2022-12-07T16:43:56;146.85;;;98.63;;
23838;SDS011;12100;44.384;20.272;2022-12-07T16:46:26;130.68;;;88.70;;
23838;SDS011;12100;44.384;20.272;2022-12-07T16:48:52;45.40;;;32.03;;
23838;SDS011;12100;44.384;20.272;2022-12-07T16:51:18;146.23;;;94.35;;